sensor_id;sensor_type;location;lat;lon;timestamp;temperature;humidity
20911;DHT22;10615;42.702;23.314;2023-07-31T00:00:18;22.60;80.00
20911;DHT22;10615;42.702;23.314;2023-07-31T00:01:18;22.60;80.00
20911;DHT22;10615;42.702;23.314;2023-07-31T00:02:19;22.60;80.00
20911;DHT22;10615;42.702;23.314;2023-07-31T00:03:20;22.60;79.80
20911;DHT22;10615;42.702;23.314;2023-07-31T00:04:20;22.50;79.80
20911;DHT22;10615;42.702;23.314;2023-07-31T00:05:21;22.50;80.10
20911;DHT22;10615;42.702;23.314;2023-07-31T00:06:22;22.40;80.10
20911;DHT22;10615;42.702;23.314;2023-07-31T00:07:22;22.40;80.40
20911;DHT22;10615;42.702;23.314;2023-07-31T00:08:23;22.40;80.50
20911;DHT22;10615;42.702;23.314;2023-07-31T00:09:24;22.40;80.40
20911;DHT22;10615;42.702;23.314;2023-07-31T00:10:24;22.40;80.60
20911;DHT22;10615;42.702;23.314;2023-07-31T00:11:25;22.40;80.70
20911;DHT22;10615;42.702;23.314;2023-07-31T00:12:26;22.40;80.70
20911;DHT22;10615;42.702;23.314;2023-07-31T00:13:26;22.40;80.80
20911;DHT22;10615;42.702;23.314;2023-07-31T00:14:27;22.40;80.70
20911;DHT22;10615;42.702;23.314;2023-07-31T00:15:28;22.40;80.70
20911;DHT22;10615;42.702;23.314;2023-07-31T00:16:29;22.40;80.80
20911;DHT22;10615;42.702;23.314;2023-07-31T00:17:30;22.40;80.90
20911;DHT22;10615;42.702;23.314;2023-07-31T00:18:30;22.40;80.80
20911;DHT22;10615;42.702;23.314;2023-07-31T00:19:31;22.50;80.90
20911;DHT22;10615;42.702;23.314;2023-07-31T00:20:32;22.50;80.80
20911;DHT22;10615;42.702;23.314;2023-07-31T00:21:32;22.50;80.70
20911;DHT22;10615;42.702;23.314;2023-07-31T00:22:34;22.50;80.40
20911;DHT22;10615;42.702;23.314;2023-07-31T00:23:34;22.50;80.40
20911;DHT22;10615;42.702;23.314;2023-07-31T00:24:35;22.50;80.70
20911;DHT22;10615;42.702;23.314;2023-07-31T00:25:35;22.40;80.60
20911;DHT22;10615;42.702;23.314;2023-07-31T00:26:36;22.40;80.90
20911;DHT22;10615;42.702;23.314;2023-07-31T00:27:37;22.40;81.30
20911;DHT22;10615;42.702;23.314;2023-07-31T00:28:37;22.40;81.30
20911;DHT22;10615;42.702;23.314;2023-07-31T00:29:38;22.30;81.60
20911;DHT22;10615;42.702;23.314;2023-07-31T00:30:39;22.30;81.70
20911;DHT22;10615;42.702;23.314;2023-07-31T00:31:40;22.30;81.90
20911;DHT22;10615;42.702;23.314;2023-07-31T00:32:40;22.30;82.00
20911;DHT22;10615;42.702;23.314;2023-07-31T00:33:41;22.30;82.40
20911;DHT22;10615;42.702;23.314;2023-07-31T00:34:42;22.30;82.60
20911;DHT22;10615;42.702;23.314;2023-07-31T00:35:42;22.30;82.80
20911;DHT22;10615;42.702;23.314;2023-07-31T00:36:43;22.30;83.10
20911;DHT22;10615;42.702;23.314;2023-07-31T00:37:44;22.30;83.40
20911;DHT22;10615;42.702;23.314;2023-07-31T00:38:45;22.30;83.70
20911;DHT22;10615;42.702;23.314;2023-07-31T00:39:45;22.20;83.80
20911;DHT22;10615;42.702;23.314;2023-07-31T00:40:46;22.20;84.10
20911;DHT22;10615;42.702;23.314;2023-07-31T00:41:47;22.10;84.40
20911;DHT22;10615;42.702;23.314;2023-07-31T00:42:47;22.10;84.80
20911;DHT22;10615;42.702;23.314;2023-07-31T00:43:48;22.10;85.20
20911;DHT22;10615;42.702;23.314;2023-07-31T00:44:49;22.00;85.30
20911;DHT22;10615;42.702;23.314;2023-07-31T00:45:49;22.00;85.80
20911;DHT22;10615;42.702;23.314;2023-07-31T00:46:50;22.00;86.10
20911;DHT22;10615;42.702;23.314;2023-07-31T00:47:51;22.00;86.20
20911;DHT22;10615;42.702;23.314;2023-07-31T00:48:52;22.00;86.20
20911;DHT22;10615;42.702;23.314;2023-07-31T00:49:53;22.10;86.30
20911;DHT22;10615;42.702;23.314;2023-07-31T00:50:53;22.10;86.50
20911;DHT22;10615;42.702;23.314;2023-07-31T00:51:54;22.10;86.70
20911;DHT22;10615;42.702;23.314;2023-07-31T00:52:58;22.10;86.60
20911;DHT22;10615;42.702;23.314;2023-07-31T00:53:59;22.00;87.00
20911;DHT22;10615;42.702;23.314;2023-07-31T00:55:00;22.00;87.20
20911;DHT22;10615;42.702;23.314;2023-07-31T00:56:01;22.00;87.40
20911;DHT22;10615;42.702;23.314;2023-07-31T00:57:02;22.00;87.70
20911;DHT22;10615;42.702;23.314;2023-07-31T00:58:03;22.00;87.90
20911;DHT22;10615;42.702;23.314;2023-07-31T00:59:04;22.00;88.00
20911;DHT22;10615;42.702;23.314;2023-07-31T01:00:05;22.00;88.00
20911;DHT22;10615;42.702;23.314;2023-07-31T01:01:05;22.00;88.10
20911;DHT22;10615;42.702;23.314;2023-07-31T01:02:06;22.00;88.30
20911;DHT22;10615;42.702;23.314;2023-07-31T01:03:07;22.00;88.60
20911;DHT22;10615;42.702;23.314;2023-07-31T01:04:08;21.90;88.90
20911;DHT22;10615;42.702;23.314;2023-07-31T01:05:09;22.00;89.30
20911;DHT22;10615;42.702;23.314;2023-07-31T01:07:45;22.00;89.40
20911;DHT22;10615;42.702;23.314;2023-07-31T01:11:31;21.90;89.70
20911;DHT22;10615;42.702;23.314;2023-07-31T01:12:34;21.90;89.80
20911;DHT22;10615;42.702;23.314;2023-07-31T01:13:35;22.00;89.90
20911;DHT22;10615;42.702;23.314;2023-07-31T01:14:36;21.90;89.90
20911;DHT22;10615;42.702;23.314;2023-07-31T01:15:37;22.00;90.00
20911;DHT22;10615;42.702;23.314;2023-07-31T01:16:37;21.90;90.00
20911;DHT22;10615;42.702;23.314;2023-07-31T01:17:39;21.90;90.00
20911;DHT22;10615;42.702;23.314;2023-07-31T01:18:39;21.90;90.10
20911;DHT22;10615;42.702;23.314;2023-07-31T01:19:40;21.90;90.30
20911;DHT22;10615;42.702;23.314;2023-07-31T01:20:42;21.90;90.30
20911;DHT22;10615;42.702;23.314;2023-07-31T01:23:35;21.80;90.50
20911;DHT22;10615;42.702;23.314;2023-07-31T01:25:15;21.80;90.60
20911;DHT22;10615;42.702;23.314;2023-07-31T01:26:21;21.80;90.80
20911;DHT22;10615;42.702;23.314;2023-07-31T01:27:31;21.80;90.80
20911;DHT22;10615;42.702;23.314;2023-07-31T01:30:00;21.70;91.00
20911;DHT22;10615;42.702;23.314;2023-07-31T01:31:07;21.70;91.10
20911;DHT22;10615;42.702;23.314;2023-07-31T01:32:11;21.60;91.20
20911;DHT22;10615;42.702;23.314;2023-07-31T01:33:12;21.60;91.30
20911;DHT22;10615;42.702;23.314;2023-07-31T01:34:15;21.60;91.40
20911;DHT22;10615;42.702;23.314;2023-07-31T01:35:18;21.60;91.50
20911;DHT22;10615;42.702;23.314;2023-07-31T01:36:18;21.50;91.60
20911;DHT22;10615;42.702;23.314;2023-07-31T01:37:19;21.50;91.70
20911;DHT22;10615;42.702;23.314;2023-07-31T01:38:21;21.50;91.90
20911;DHT22;10615;42.702;23.314;2023-07-31T01:39:22;21.50;92.00
20911;DHT22;10615;42.702;23.314;2023-07-31T01:40:23;21.50;92.00
20911;DHT22;10615;42.702;23.314;2023-07-31T01:41:23;21.40;92.20
20911;DHT22;10615;42.702;23.314;2023-07-31T01:42:24;21.40;92.30
20911;DHT22;10615;42.702;23.314;2023-07-31T01:43:25;21.40;92.40
20911;DHT22;10615;42.702;23.314;2023-07-31T01:44:25;21.30;92.60
20911;DHT22;10615;42.702;23.314;2023-07-31T01:45:26;21.30;92.70
20911;DHT22;10615;42.702;23.314;2023-07-31T01:46:27;21.30;92.90
20911;DHT22;10615;42.702;23.314;2023-07-31T01:47:27;21.30;93.00
20911;DHT22;10615;42.702;23.314;2023-07-31T01:48:28;21.30;93.00
20911;DHT22;10615;42.702;23.314;2023-07-31T01:49:29;21.30;93.20
20911;DHT22;10615;42.702;23.314;2023-07-31T01:50:29;21.30;93.30
20911;DHT22;10615;42.702;23.314;2023-07-31T01:51:30;21.30;93.40
20911;DHT22;10615;42.702;23.314;2023-07-31T01:52:34;21.20;93.50
20911;DHT22;10615;42.702;23.314;2023-07-31T01:53:35;21.20;93.60
20911;DHT22;10615;42.702;23.314;2023-07-31T01:54:35;21.20;93.80
20911;DHT22;10615;42.702;23.314;2023-07-31T01:55:37;21.20;93.90
20911;DHT22;10615;42.702;23.314;2023-07-31T01:56:37;21.20;94.00
20911;DHT22;10615;42.702;23.314;2023-07-31T01:57:38;21.20;94.10
20911;DHT22;10615;42.702;23.314;2023-07-31T01:58:39;21.20;94.20
20911;DHT22;10615;42.702;23.314;2023-07-31T01:59:40;21.20;94.20
20911;DHT22;10615;42.702;23.314;2023-07-31T02:00:40;21.20;94.20
20911;DHT22;10615;42.702;23.314;2023-07-31T02:01:41;21.20;94.40
20911;DHT22;10615;42.702;23.314;2023-07-31T02:02:41;21.20;94.40
20911;DHT22;10615;42.702;23.314;2023-07-31T02:03:42;21.20;94.50
20911;DHT22;10615;42.702;23.314;2023-07-31T02:04:43;21.20;94.60
20911;DHT22;10615;42.702;23.314;2023-07-31T02:05:45;21.20;94.70
20911;DHT22;10615;42.702;23.314;2023-07-31T02:06:46;21.20;94.80
20911;DHT22;10615;42.702;23.314;2023-07-31T02:07:46;21.20;94.90
20911;DHT22;10615;42.702;23.314;2023-07-31T02:08:47;21.20;95.00
20911;DHT22;10615;42.702;23.314;2023-07-31T02:09:48;21.10;95.00
20911;DHT22;10615;42.702;23.314;2023-07-31T02:10:48;21.10;95.10
20911;DHT22;10615;42.702;23.314;2023-07-31T02:11:49;21.10;95.20
20911;DHT22;10615;42.702;23.314;2023-07-31T02:12:50;21.10;95.40
20911;DHT22;10615;42.702;23.314;2023-07-31T02:13:50;21.10;95.40
20911;DHT22;10615;42.702;23.314;2023-07-31T02:14:51;21.10;95.50
20911;DHT22;10615;42.702;23.314;2023-07-31T02:15:52;21.20;95.60
20911;DHT22;10615;42.702;23.314;2023-07-31T02:16:52;21.20;95.60
20911;DHT22;10615;42.702;23.314;2023-07-31T02:17:53;21.20;95.50
20911;DHT22;10615;42.702;23.314;2023-07-31T02:18:54;21.20;95.60
20911;DHT22;10615;42.702;23.314;2023-07-31T02:19:54;21.20;95.70
20911;DHT22;10615;42.702;23.314;2023-07-31T02:20:55;21.20;95.80
20911;DHT22;10615;42.702;23.314;2023-07-31T02:21:56;21.20;95.80
20911;DHT22;10615;42.702;23.314;2023-07-31T02:22:57;21.20;95.80
20911;DHT22;10615;42.702;23.314;2023-07-31T02:23:57;21.30;96.00
20911;DHT22;10615;42.702;23.314;2023-07-31T02:24:58;21.30;96.00
20911;DHT22;10615;42.702;23.314;2023-07-31T02:25:59;21.30;96.00
20911;DHT22;10615;42.702;23.314;2023-07-31T02:26:59;21.30;95.90
20911;DHT22;10615;42.702;23.314;2023-07-31T02:28:00;21.30;96.00
20911;DHT22;10615;42.702;23.314;2023-07-31T02:29:01;21.20;96.10
20911;DHT22;10615;42.702;23.314;2023-07-31T02:30:01;21.20;96.20
20911;DHT22;10615;42.702;23.314;2023-07-31T02:31:02;21.20;96.30
20911;DHT22;10615;42.702;23.314;2023-07-31T02:32:03;21.30;96.40
20911;DHT22;10615;42.702;23.314;2023-07-31T02:33:05;21.30;96.40
20911;DHT22;10615;42.702;23.314;2023-07-31T02:34:06;21.30;96.50
20911;DHT22;10615;42.702;23.314;2023-07-31T02:35:07;21.20;96.50
20911;DHT22;10615;42.702;23.314;2023-07-31T02:36:07;21.30;96.60
20911;DHT22;10615;42.702;23.314;2023-07-31T02:37:08;21.30;96.70
20911;DHT22;10615;42.702;23.314;2023-07-31T02:38:09;21.30;96.70
20911;DHT22;10615;42.702;23.314;2023-07-31T02:39:09;21.30;96.70
20911;DHT22;10615;42.702;23.314;2023-07-31T02:40:10;21.30;96.80
20911;DHT22;10615;42.702;23.314;2023-07-31T02:41:11;21.30;96.70
20911;DHT22;10615;42.702;23.314;2023-07-31T02:42:13;21.20;96.80
20911;DHT22;10615;42.702;23.314;2023-07-31T02:43:13;21.30;96.80
20911;DHT22;10615;42.702;23.314;2023-07-31T02:44:14;21.30;96.90
20911;DHT22;10615;42.702;23.314;2023-07-31T02:45:15;21.30;96.90
20911;DHT22;10615;42.702;23.314;2023-07-31T02:46:15;21.30;96.90
20911;DHT22;10615;42.702;23.314;2023-07-31T02:47:16;21.30;97.00
20911;DHT22;10615;42.702;23.314;2023-07-31T02:48:17;21.40;96.90
20911;DHT22;10615;42.702;23.314;2023-07-31T02:49:17;21.40;96.80
20911;DHT22;10615;42.702;23.314;2023-07-31T02:50:18;21.40;97.00
20911;DHT22;10615;42.702;23.314;2023-07-31T02:51:19;21.40;96.90
20911;DHT22;10615;42.702;23.314;2023-07-31T02:52:21;21.40;96.80
20911;DHT22;10615;42.702;23.314;2023-07-31T02:53:22;21.40;96.90
20911;DHT22;10615;42.702;23.314;2023-07-31T02:54:23;21.50;96.90
20911;DHT22;10615;42.702;23.314;2023-07-31T02:55:24;21.50;96.80
20911;DHT22;10615;42.702;23.314;2023-07-31T02:56:25;21.60;96.70
20911;DHT22;10615;42.702;23.314;2023-07-31T02:57:25;21.60;96.60
20911;DHT22;10615;42.702;23.314;2023-07-31T02:58:26;21.60;96.60
20911;DHT22;10615;42.702;23.314;2023-07-31T02:59:28;21.60;96.60
20911;DHT22;10615;42.702;23.314;2023-07-31T03:00:28;21.60;96.60
20911;DHT22;10615;42.702;23.314;2023-07-31T03:01:29;21.60;96.50
20911;DHT22;10615;42.702;23.314;2023-07-31T03:02:30;21.60;96.50
20911;DHT22;10615;42.702;23.314;2023-07-31T03:03:30;21.60;96.50
20911;DHT22;10615;42.702;23.314;2023-07-31T03:04:31;21.60;96.50
20911;DHT22;10615;42.702;23.314;2023-07-31T03:05:31;21.60;96.50
20911;DHT22;10615;42.702;23.314;2023-07-31T03:06:32;21.60;96.40
20911;DHT22;10615;42.702;23.314;2023-07-31T03:07:33;21.70;96.40
20911;DHT22;10615;42.702;23.314;2023-07-31T03:08:33;21.70;96.40
20911;DHT22;10615;42.702;23.314;2023-07-31T03:09:34;21.70;96.30
20911;DHT22;10615;42.702;23.314;2023-07-31T03:10:35;21.70;96.20
20911;DHT22;10615;42.702;23.314;2023-07-31T03:11:35;21.70;96.20
20911;DHT22;10615;42.702;23.314;2023-07-31T03:12:36;21.70;96.20
20911;DHT22;10615;42.702;23.314;2023-07-31T03:13:36;21.70;96.30
20911;DHT22;10615;42.702;23.314;2023-07-31T03:14:37;21.70;96.30
20911;DHT22;10615;42.702;23.314;2023-07-31T03:15:38;21.70;96.40
20911;DHT22;10615;42.702;23.314;2023-07-31T03:16:38;21.70;96.50
20911;DHT22;10615;42.702;23.314;2023-07-31T03:17:39;21.70;96.40
20911;DHT22;10615;42.702;23.314;2023-07-31T03:18:40;21.80;96.50
20911;DHT22;10615;42.702;23.314;2023-07-31T03:19:40;21.80;96.40
20911;DHT22;10615;42.702;23.314;2023-07-31T03:20:44;21.80;96.30
20911;DHT22;10615;42.702;23.314;2023-07-31T03:21:45;21.80;96.20
20911;DHT22;10615;42.702;23.314;2023-07-31T03:22:46;21.80;96.30
20911;DHT22;10615;42.702;23.314;2023-07-31T03:23:46;21.80;96.30
20911;DHT22;10615;42.702;23.314;2023-07-31T03:24:47;21.80;96.40
20911;DHT22;10615;42.702;23.314;2023-07-31T03:26:01;21.80;96.40
20911;DHT22;10615;42.702;23.314;2023-07-31T03:27:03;21.80;96.40
20911;DHT22;10615;42.702;23.314;2023-07-31T03:28:04;21.80;96.50
20911;DHT22;10615;42.702;23.314;2023-07-31T03:29:05;21.80;96.50
20911;DHT22;10615;42.702;23.314;2023-07-31T03:30:06;21.80;96.50
20911;DHT22;10615;42.702;23.314;2023-07-31T03:31:07;21.80;96.50
20911;DHT22;10615;42.702;23.314;2023-07-31T03:32:08;21.80;96.50
20911;DHT22;10615;42.702;23.314;2023-07-31T03:33:09;21.80;96.40
20911;DHT22;10615;42.702;23.314;2023-07-31T03:34:10;21.80;96.80
20911;DHT22;10615;42.702;23.314;2023-07-31T03:35:11;21.80;96.50
20911;DHT22;10615;42.702;23.314;2023-07-31T03:36:11;21.80;96.50
20911;DHT22;10615;42.702;23.314;2023-07-31T03:37:12;21.80;96.50
20911;DHT22;10615;42.702;23.314;2023-07-31T03:38:13;21.80;96.50
20911;DHT22;10615;42.702;23.314;2023-07-31T03:39:14;21.90;96.50
20911;DHT22;10615;42.702;23.314;2023-07-31T03:40:14;21.90;96.40
20911;DHT22;10615;42.702;23.314;2023-07-31T03:41:15;21.90;96.40
20911;DHT22;10615;42.702;23.314;2023-07-31T03:42:16;21.90;96.30
20911;DHT22;10615;42.702;23.314;2023-07-31T03:43:16;21.90;96.20
20911;DHT22;10615;42.702;23.314;2023-07-31T03:44:17;21.90;96.10
20911;DHT22;10615;42.702;23.314;2023-07-31T03:45:18;21.90;96.00
20911;DHT22;10615;42.702;23.314;2023-07-31T03:46:19;21.90;96.00
20911;DHT22;10615;42.702;23.314;2023-07-31T03:47:19;21.90;96.10
20911;DHT22;10615;42.702;23.314;2023-07-31T03:48:20;22.00;96.50
20911;DHT22;10615;42.702;23.314;2023-07-31T03:49:21;22.00;96.10
20911;DHT22;10615;42.702;23.314;2023-07-31T03:50:21;22.10;95.90
20911;DHT22;10615;42.702;23.314;2023-07-31T03:51:22;22.10;95.70
20911;DHT22;10615;42.702;23.314;2023-07-31T03:52:23;22.20;95.60
20911;DHT22;10615;42.702;23.314;2023-07-31T03:53:24;22.20;95.40
20911;DHT22;10615;42.702;23.314;2023-07-31T03:54:24;22.20;95.30
20911;DHT22;10615;42.702;23.314;2023-07-31T03:55:25;22.20;95.30
20911;DHT22;10615;42.702;23.314;2023-07-31T03:56:26;22.20;95.20
20911;DHT22;10615;42.702;23.314;2023-07-31T03:57:26;22.20;95.10
20911;DHT22;10615;42.702;23.314;2023-07-31T03:58:27;22.20;95.00
20911;DHT22;10615;42.702;23.314;2023-07-31T03:59:28;22.20;95.00
20911;DHT22;10615;42.702;23.314;2023-07-31T04:00:28;22.20;95.00
20911;DHT22;10615;42.702;23.314;2023-07-31T04:01:29;22.10;95.00
20911;DHT22;10615;42.702;23.314;2023-07-31T04:02:30;22.10;95.00
20911;DHT22;10615;42.702;23.314;2023-07-31T04:03:30;22.20;95.10
20911;DHT22;10615;42.702;23.314;2023-07-31T04:04:31;22.20;95.00
20911;DHT22;10615;42.702;23.314;2023-07-31T04:05:32;22.20;94.90
20911;DHT22;10615;42.702;23.314;2023-07-31T04:06:33;22.10;95.00
20911;DHT22;10615;42.702;23.314;2023-07-31T04:07:34;22.10;95.00
20911;DHT22;10615;42.702;23.314;2023-07-31T04:08:34;22.10;94.90
20911;DHT22;10615;42.702;23.314;2023-07-31T04:09:35;22.10;94.90
20911;DHT22;10615;42.702;23.314;2023-07-31T04:10:36;22.10;95.00
20911;DHT22;10615;42.702;23.314;2023-07-31T04:11:36;22.10;95.10
20911;DHT22;10615;42.702;23.314;2023-07-31T04:12:37;22.10;95.20
20911;DHT22;10615;42.702;23.314;2023-07-31T04:13:38;22.00;95.30
20911;DHT22;10615;42.702;23.314;2023-07-31T04:14:39;22.00;95.40
20911;DHT22;10615;42.702;23.314;2023-07-31T04:15:40;22.00;95.40
20911;DHT22;10615;42.702;23.314;2023-07-31T04:16:40;22.00;95.40
20911;DHT22;10615;42.702;23.314;2023-07-31T04:17:41;22.10;95.50
20911;DHT22;10615;42.702;23.314;2023-07-31T04:18:42;22.10;95.50
20911;DHT22;10615;42.702;23.314;2023-07-31T04:19:43;22.10;95.40
20911;DHT22;10615;42.702;23.314;2023-07-31T04:20:43;22.20;95.30
20911;DHT22;10615;42.702;23.314;2023-07-31T04:21:44;22.20;95.20
20911;DHT22;10615;42.702;23.314;2023-07-31T04:22:45;22.20;95.00
20911;DHT22;10615;42.702;23.314;2023-07-31T04:23:46;22.20;95.00
20911;DHT22;10615;42.702;23.314;2023-07-31T04:24:46;22.20;95.00
20911;DHT22;10615;42.702;23.314;2023-07-31T04:25:47;22.20;95.10
20911;DHT22;10615;42.702;23.314;2023-07-31T04:26:48;22.20;94.90
20911;DHT22;10615;42.702;23.314;2023-07-31T04:27:48;22.20;95.00
20911;DHT22;10615;42.702;23.314;2023-07-31T04:28:49;22.30;94.70
20911;DHT22;10615;42.702;23.314;2023-07-31T04:29:50;22.20;94.70
20911;DHT22;10615;42.702;23.314;2023-07-31T04:30:51;22.20;94.70
20911;DHT22;10615;42.702;23.314;2023-07-31T04:31:52;22.20;94.80
20911;DHT22;10615;42.702;23.314;2023-07-31T04:32:52;22.20;94.80
20911;DHT22;10615;42.702;23.314;2023-07-31T04:33:53;22.20;94.70
20911;DHT22;10615;42.702;23.314;2023-07-31T04:34:54;22.20;94.70
20911;DHT22;10615;42.702;23.314;2023-07-31T04:35:54;22.20;94.60
20911;DHT22;10615;42.702;23.314;2023-07-31T04:36:55;22.20;94.60
20911;DHT22;10615;42.702;23.314;2023-07-31T04:37:56;22.20;94.70
20911;DHT22;10615;42.702;23.314;2023-07-31T04:38:57;22.30;94.60
20911;DHT22;10615;42.702;23.314;2023-07-31T04:39:57;22.30;94.40
20911;DHT22;10615;42.702;23.314;2023-07-31T04:40:58;22.40;94.40
20911;DHT22;10615;42.702;23.314;2023-07-31T04:41:59;22.40;94.20
20911;DHT22;10615;42.702;23.314;2023-07-31T04:42:59;22.60;94.10
20911;DHT22;10615;42.702;23.314;2023-07-31T04:44:01;22.70;93.80
20911;DHT22;10615;42.702;23.314;2023-07-31T04:45:01;22.80;93.30
20911;DHT22;10615;42.702;23.314;2023-07-31T04:46:02;22.80;93.00
20911;DHT22;10615;42.702;23.314;2023-07-31T04:47:03;22.90;92.80
20911;DHT22;10615;42.702;23.314;2023-07-31T04:48:04;22.90;92.50
20911;DHT22;10615;42.702;23.314;2023-07-31T04:49:04;23.00;92.20
20911;DHT22;10615;42.702;23.314;2023-07-31T04:50:06;23.10;92.00
20911;DHT22;10615;42.702;23.314;2023-07-31T04:51:06;23.10;91.70
20911;DHT22;10615;42.702;23.314;2023-07-31T04:52:07;23.20;91.60
20911;DHT22;10615;42.702;23.314;2023-07-31T04:53:08;23.30;91.40
20911;DHT22;10615;42.702;23.314;2023-07-31T04:54:08;23.30;91.00
20911;DHT22;10615;42.702;23.314;2023-07-31T04:55:09;23.40;90.80
20911;DHT22;10615;42.702;23.314;2023-07-31T04:56:10;23.40;90.50
20911;DHT22;10615;42.702;23.314;2023-07-31T04:57:10;23.40;90.40
20911;DHT22;10615;42.702;23.314;2023-07-31T04:58:11;23.50;90.20
20911;DHT22;10615;42.702;23.314;2023-07-31T04:59:11;23.50;90.00
20911;DHT22;10615;42.702;23.314;2023-07-31T05:00:12;23.50;90.00
20911;DHT22;10615;42.702;23.314;2023-07-31T05:01:13;23.70;90.00
20911;DHT22;10615;42.702;23.314;2023-07-31T05:02:13;24.50;89.50
20911;DHT22;10615;42.702;23.314;2023-07-31T05:03:14;25.10;87.50
20911;DHT22;10615;42.702;23.314;2023-07-31T05:04:15;25.50;84.80
20911;DHT22;10615;42.702;23.314;2023-07-31T05:05:16;26.00;82.20
20911;DHT22;10615;42.702;23.314;2023-07-31T05:06:16;26.20;79.60
20911;DHT22;10615;42.702;23.314;2023-07-31T05:07:17;26.90;77.60
20911;DHT22;10615;42.702;23.314;2023-07-31T05:08:18;27.40;75.40
20911;DHT22;10615;42.702;23.314;2023-07-31T05:09:19;27.10;72.80
20911;DHT22;10615;42.702;23.314;2023-07-31T05:10:19;27.10;72.20
20911;DHT22;10615;42.702;23.314;2023-07-31T05:11:20;27.40;72.00
20911;DHT22;10615;42.702;23.314;2023-07-31T05:12:21;27.50;71.70
20911;DHT22;10615;42.702;23.314;2023-07-31T05:13:21;27.60;71.10
20911;DHT22;10615;42.702;23.314;2023-07-31T05:14:22;27.60;70.10
20911;DHT22;10615;42.702;23.314;2023-07-31T05:15:23;27.40;69.60
20911;DHT22;10615;42.702;23.314;2023-07-31T05:16:24;27.20;69.30
20911;DHT22;10615;42.702;23.314;2023-07-31T05:17:24;27.00;69.70
20911;DHT22;10615;42.702;23.314;2023-07-31T05:18:25;26.90;70.00
20911;DHT22;10615;42.702;23.314;2023-07-31T05:19:26;26.80;70.40
20911;DHT22;10615;42.702;23.314;2023-07-31T05:20:26;26.90;70.50
20911;DHT22;10615;42.702;23.314;2023-07-31T05:21:28;26.90;70.60
20911;DHT22;10615;42.702;23.314;2023-07-31T05:22:28;27.10;70.40
20911;DHT22;10615;42.702;23.314;2023-07-31T05:23:29;27.40;70.20
20911;DHT22;10615;42.702;23.314;2023-07-31T05:24:31;27.60;68.90
20911;DHT22;10615;42.702;23.314;2023-07-31T05:25:32;27.50;67.90
20911;DHT22;10615;42.702;23.314;2023-07-31T05:26:33;27.40;67.90
20911;DHT22;10615;42.702;23.314;2023-07-31T05:27:33;27.30;68.00
20911;DHT22;10615;42.702;23.314;2023-07-31T05:28:35;27.10;68.20
20911;DHT22;10615;42.702;23.314;2023-07-31T05:29:36;27.60;68.60
20911;DHT22;10615;42.702;23.314;2023-07-31T05:30:36;29.00;68.80
20911;DHT22;10615;42.702;23.314;2023-07-31T05:31:38;30.10;66.10
20911;DHT22;10615;42.702;23.314;2023-07-31T05:32:39;30.10;62.50
20911;DHT22;10615;42.702;23.314;2023-07-31T05:33:39;30.80;60.50
20911;DHT22;10615;42.702;23.314;2023-07-31T05:34:40;31.50;59.20
20911;DHT22;10615;42.702;23.314;2023-07-31T05:35:41;32.40;58.20
20911;DHT22;10615;42.702;23.314;2023-07-31T05:36:41;32.40;56.10
20911;DHT22;10615;42.702;23.314;2023-07-31T05:37:42;33.50;55.30
20911;DHT22;10615;42.702;23.314;2023-07-31T05:38:43;34.40;53.50
20911;DHT22;10615;42.702;23.314;2023-07-31T05:39:45;35.20;51.60
20911;DHT22;10615;42.702;23.314;2023-07-31T05:40:46;35.90;50.20
20911;DHT22;10615;42.702;23.314;2023-07-31T05:41:47;36.20;48.50
20911;DHT22;10615;42.702;23.314;2023-07-31T05:42:48;35.90;47.40
20911;DHT22;10615;42.702;23.314;2023-07-31T05:43:48;35.20;46.70
20911;DHT22;10615;42.702;23.314;2023-07-31T05:44:49;34.50;46.80
20911;DHT22;10615;42.702;23.314;2023-07-31T05:45:51;33.60;47.60
20911;DHT22;10615;42.702;23.314;2023-07-31T05:46:51;32.90;48.70
20911;DHT22;10615;42.702;23.314;2023-07-31T05:47:52;32.10;49.90
20911;DHT22;10615;42.702;23.314;2023-07-31T05:48:53;31.50;51.00
20911;DHT22;10615;42.702;23.314;2023-07-31T05:49:53;30.80;52.00
20911;DHT22;10615;42.702;23.314;2023-07-31T05:50:54;30.10;53.30
20911;DHT22;10615;42.702;23.314;2023-07-31T05:51:55;29.60;54.70
20911;DHT22;10615;42.702;23.314;2023-07-31T05:52:55;29.10;55.80
20911;DHT22;10615;42.702;23.314;2023-07-31T05:53:56;28.90;56.80
20911;DHT22;10615;42.702;23.314;2023-07-31T05:54:57;28.70;57.10
20911;DHT22;10615;42.702;23.314;2023-07-31T05:55:58;28.70;57.70
20911;DHT22;10615;42.702;23.314;2023-07-31T05:56:58;28.70;57.70
20911;DHT22;10615;42.702;23.314;2023-07-31T05:57:59;28.60;57.80
20911;DHT22;10615;42.702;23.314;2023-07-31T05:58:59;28.60;58.00
20911;DHT22;10615;42.702;23.314;2023-07-31T06:00:01;28.50;57.80
20911;DHT22;10615;42.702;23.314;2023-07-31T06:01:02;28.30;57.90
20911;DHT22;10615;42.702;23.314;2023-07-31T06:02:02;28.20;58.10
20911;DHT22;10615;42.702;23.314;2023-07-31T06:03:03;28.00;58.30
20911;DHT22;10615;42.702;23.314;2023-07-31T06:04:04;27.90;58.70
20911;DHT22;10615;42.702;23.314;2023-07-31T06:05:05;27.80;58.90
20911;DHT22;10615;42.702;23.314;2023-07-31T06:06:06;27.80;59.20
20911;DHT22;10615;42.702;23.314;2023-07-31T06:07:07;27.80;59.30
20911;DHT22;10615;42.702;23.314;2023-07-31T06:08:07;27.90;59.30
20911;DHT22;10615;42.702;23.314;2023-07-31T06:09:08;27.90;59.30
20911;DHT22;10615;42.702;23.314;2023-07-31T06:10:09;28.00;59.20
20911;DHT22;10615;42.702;23.314;2023-07-31T06:11:10;28.40;59.10
20911;DHT22;10615;42.702;23.314;2023-07-31T06:12:10;29.30;58.60
20911;DHT22;10615;42.702;23.314;2023-07-31T06:13:12;30.40;57.60
20911;DHT22;10615;42.702;23.314;2023-07-31T06:14:12;31.20;55.80
20911;DHT22;10615;42.702;23.314;2023-07-31T06:15:13;31.20;53.90
20911;DHT22;10615;42.702;23.314;2023-07-31T06:16:14;31.20;53.10
20911;DHT22;10615;42.702;23.314;2023-07-31T06:17:15;31.40;52.60
20911;DHT22;10615;42.702;23.314;2023-07-31T06:18:16;31.50;52.30
20911;DHT22;10615;42.702;23.314;2023-07-31T06:19:17;32.00;51.80
20911;DHT22;10615;42.702;23.314;2023-07-31T06:20:18;33.80;51.50
20911;DHT22;10615;42.702;23.314;2023-07-31T06:21:18;35.20;49.30
20911;DHT22;10615;42.702;23.314;2023-07-31T06:22:19;35.00;46.70
20911;DHT22;10615;42.702;23.314;2023-07-31T06:23:20;37.00;44.70
20911;DHT22;10615;42.702;23.314;2023-07-31T06:24:21;36.90;45.10
20911;DHT22;10615;42.702;23.314;2023-07-31T06:25:22;37.70;43.40
20911;DHT22;10615;42.702;23.314;2023-07-31T06:26:23;38.40;41.60